Time;durP1;ratioP1;P1;durP2;ratioP2;P2;SDS_P1;SDS_P2;PMS_P1;PMS_P2;Temp;Humidity;BMP_temperature;BMP_pressure;BME280_temperature;BME280_humidity;BME280_pressure;Samples;Min_cycle;Max_cycle;Signal;HPM_P1;HPM_P2
2023/02/18 00:01:17;;;;;;;2.70;1.70;;;;;;;10.28;88.09;96481.50;5022460;28;20678;-79
2023/02/18 00:03:43;;;;;;;4.77;1.70;;;;;;;10.42;86.92;96476.84;5018164;28;20227;-78
2023/02/18 00:06:13;;;;;;;2.30;1.77;;;;;;;10.49;86.65;96475.38;5016644;28;20179;-79
2023/02/18 00:08:39;;;;;;;2.67;2.03;;;;;;;10.39;87.13;96473.66;5025806;28;20179;-79
2023/02/18 00:11:05;;;;;;;1.60;1.50;;;;;;;10.42;86.98;96468.22;5016409;28;20203;-79
2023/02/18 00:13:34;;;;;;;3.33;2.10;;;;;;;10.36;87.10;96482.53;5018248;28;20712;-79
2023/02/18 00:16:04;;;;;;;2.13;2.03;;;;;;;10.50;86.27;96486.59;5024414;28;20190;-79
2023/02/18 00:18:30;;;;;;;2.50;2.30;;;;;;;10.49;85.90;96480.59;5030118;28;20183;-78
2023/02/18 00:20:55;;;;;;;2.50;2.30;;;;;;;10.34;86.42;96481.84;5017704;28;20281;-78
2023/02/18 00:23:20;;;;;;;3.70;2.03;;;;;;;10.38;86.15;96493.63;5017569;28;20800;-78
2023/02/18 00:25:46;;;;;;;2.13;1.97;;;;;;;10.41;86.13;96498.56;5022401;28;20187;-79
2023/02/18 00:28:11;;;;;;;3.10;2.00;;;;;;;10.45;85.27;96496.56;5018778;28;20187;-79
2023/02/18 00:30:40;;;;;;;4.23;2.37;;;;;;;10.44;85.89;96500.09;5017892;28;20189;-79
2023/02/18 00:33:06;;;;;;;2.53;2.30;;;;;;;10.45;85.57;96492.19;5024630;28;20281;-79
2023/02/18 00:35:31;;;;;;;2.70;2.50;;;;;;;10.39;86.19;96478.84;5018399;28;20210;-79
2023/02/18 00:37:56;;;;;;;3.20;2.37;;;;;;;10.38;86.50;96469.44;5018664;28;20247;-79
2023/02/18 00:40:22;;;;;;;2.90;2.60;;;;;;;10.53;85.20;96469.97;5012028;28;20191;-80
2023/02/18 00:42:47;;;;;;;4.70;2.80;;;;;;;10.29;86.54;96473.59;5009806;28;20211;-80
2023/02/18 00:45:12;;;;;;;3.40;2.93;;;;;;;10.35;86.23;96477.47;5018226;28;20214;-79
2023/02/18 00:47:38;;;;;;;4.87;3.93;;;;;;;10.30;86.06;96474.41;5014321;28;20221;-79
2023/02/18 00:50:03;;;;;;;5.07;3.57;;;;;;;10.41;85.03;96470.00;5026613;28;20199;-79
2023/02/18 00:52:28;;;;;;;4.67;3.20;;;;;;;10.47;84.62;96479.88;5022306;28;20207;-79
2023/02/18 00:54:54;;;;;;;3.53;3.17;;;;;;;10.28;85.70;96476.31;5016110;28;20179;-79
2023/02/18 00:57:19;;;;;;;3.90;2.97;;;;;;;10.34;85.55;96476.66;5003508;28;20205;-79
2023/02/18 00:59:44;;;;;;;3.53;2.87;;;;;;;10.35;85.73;96486.09;5004869;28;20195;-80
2023/02/18 01:02:10;;;;;;;3.27;2.97;;;;;;;10.45;85.16;96478.38;5001446;28;20225;-79
2023/02/18 01:04:35;;;;;;;3.57;3.27;;;;;;;10.38;85.24;96477.22;4999120;28;20246;-78
2023/02/18 01:07:00;;;;;;;3.60;3.27;;;;;;;10.39;85.21;96477.09;5006310;28;20202;-79
2023/02/18 01:09:26;;;;;;;3.27;3.07;;;;;;;10.42;84.83;96465.63;5020819;28;20182;-78
2023/02/18 01:11:51;;;;;;;3.40;3.10;;;;;;;10.41;84.90;96487.34;5026556;28;20618;-79
2023/02/18 01:14:16;;;;;;;5.37;3.60;;;;;;;10.52;83.94;96479.53;5029066;28;20267;-79
2023/02/18 01:16:41;;;;;;;3.30;3.00;;;;;;;10.58;83.60;96467.81;5022678;28;20233;-79
2023/02/18 01:19:10;;;;;;;3.50;3.20;;;;;;;10.33;84.03;96463.75;5001392;28;20689;-79
2023/02/18 01:21:35;;;;;;;3.83;3.30;;;;;;;10.45;83.46;96461.03;5016107;28;20191;-80
2023/02/18 01:24:01;;;;;;;3.40;2.73;;;;;;;10.57;83.08;96460.97;5024121;28;20221;-79
2023/02/18 01:26:26;;;;;;;2.67;2.47;;;;;;;10.40;83.73;96460.56;5022107;28;20547;-80
2023/02/18 01:28:52;;;;;;;3.03;2.60;;;;;;;10.52;83.38;96465.72;4999307;28;20694;-80
2023/02/18 01:31:17;;;;;;;4.43;2.63;;;;;;;10.52;83.08;96450.16;5018223;28;20190;-80
2023/02/18 01:33:42;;;;;;;3.13;2.83;;;;;;;10.27;84.79;96444.34;5007646;28;20210;-78
2023/02/18 01:36:09;;;;;;;2.93;2.73;;;;;;;10.32;84.64;96442.16;5019849;28;20191;-79
2023/02/18 01:38:34;;;;;;;3.40;3.10;;;;;;;10.21;85.17;96443.00;5014826;28;20194;-79
2023/02/18 01:41:00;;;;;;;3.33;3.03;;;;;;;10.28;84.93;96448.56;5014883;28;20274;-80
2023/02/18 01:43:25;;;;;;;3.73;2.90;;;;;;;10.51;83.62;96449.28;5020014;28;20243;-79
2023/02/18 01:45:57;;;;;;;6.33;3.30;;;;;;;10.45;84.16;96448.03;4999409;28;20187;-80
2023/02/18 01:48:29;;;;;;;2.97;2.77;;;;;;;10.46;83.92;96447.09;5018404;28;20191;-78
2023/02/18 01:51:07;;;;;;;3.43;3.13;;;;;;;10.48;83.94;96444.34;5013604;28;20701;-79
2023/02/18 01:53:44;;;;;;;2.97;2.67;;;;;;;10.44;84.61;96435.19;5029879;28;20210;-78
2023/02/18 01:56:15;;;;;;;3.70;3.40;;;;;;;10.44;84.33;96438.59;5029354;28;20225;-78
2023/02/18 01:58:41;;;;;;;3.17;2.87;;;;;;;10.37;84.37;96428.84;5024093;28;20198;-78
2023/02/18 02:01:07;;;;;;;3.77;3.47;;;;;;;10.45;83.77;96431.63;5001383;28;20198;-79
2023/02/18 02:03:33;;;;;;;3.70;3.40;;;;;;;10.42;84.24;96421.47;5013218;28;20218;-78
2023/02/18 02:05:58;;;;;;;3.77;3.47;;;;;;;10.40;83.90;96428.56;5001136;28;20186;-78
2023/02/18 02:08:23;;;;;;;3.40;3.10;;;;;;;10.36;84.45;96424.59;5024140;28;20200;-78
2023/02/18 02:11:04;;;;;;;3.40;3.10;;;;;;;10.48;83.98;96432.19;5014782;28;20216;-78
2023/02/18 02:13:39;;;;;;;3.70;3.40;;;;;;;10.20;84.45;96430.16;5028300;28;20202;-78
2023/02/18 02:16:11;;;;;;;4.87;3.77;;;;;;;10.40;83.52;96420.78;5026671;28;20201;-79
2023/02/18 02:18:45;;;;;;;4.03;3.63;;;;;;;10.42;82.84;96430.13;5000645;28;20722;-79
2023/02/18 02:21:46;;;;;;;4.23;3.83;;;;;;;10.34;81.98;96424.72;5017622;28;20184;-79
2023/02/18 02:24:28;;;;;;;4.53;4.13;;;;;;;10.50;80.51;96430.28;4989022;28;20211;-79
2023/02/18 02:27:12;;;;;;;4.03;3.73;;;;;;;10.44;79.95;96427.38;5024597;28;20206;-78
2023/02/18 02:29:40;;;;;;;4.03;3.73;;;;;;;10.57;79.58;96428.03;5031435;28;20190;-79
2023/02/18 02:32:19;;;;;;;3.93;3.47;;;;;;;10.44;79.95;96427.38;5026960;28;20244;-78
2023/02/18 02:34:50;;;;;;;3.17;2.87;;;;;;;10.64;79.27;96420.56;5030891;28;20233;-78
2023/02/18 02:37:36;;;;;;;3.50;3.20;;;;;;;10.53;79.45;96423.22;5028233;28;20199;-78
2023/02/18 02:40:16;;;;;;;3.13;2.87;;;;;;;10.55;80.32;96423.91;5021591;28;20278;-79
2023/02/18 02:42:53;;;;;;;4.03;3.07;;;;;;;10.62;79.72;96422.47;5023206;28;20197;-79
2023/02/18 02:45:29;;;;;;;3.40;3.10;;;;;;;10.65;79.23;96423.03;5013145;28;20226;-78
2023/02/18 02:48:32;;;;;;;4.40;3.50;;;;;;;10.71;78.87;96416.50;5011438;28;20194;-78
2023/02/18 02:51:28;;;;;;;3.27;2.97;;;;;;;10.69;79.41;96415.78;5025783;28;20817;-78
2023/02/18 02:53:54;;;;;;;2.93;2.67;;;;;;;10.61;79.34;96408.66;5034122;28;20716;-79
2023/02/18 02:56:24;;;;;;;3.07;2.87;;;;;;;10.49;80.27;96397.47;5031750;28;20269;-77
2023/02/18 02:59:13;;;;;;;3.67;3.07;;;;;;;10.60;79.92;96407.00;5026356;28;20191;-77
2023/02/18 03:01:50;;;;;;;3.37;3.03;;;;;;;10.61;80.17;96405.22;5019434;28;20332;-80
2023/02/18 03:04:28;;;;;;;3.10;2.80;;;;;;;10.73;79.72;96404.22;5018560;28;20260;-77
2023/02/18 03:06:59;;;;;;;3.73;3.30;;;;;;;10.55;80.65;96392.75;5027552;28;20182;-80
2023/02/18 03:09:32;;;;;;;5.33;3.23;;;;;;;10.65;80.36;96396.22;5017920;28;20252;-77
2023/02/18 03:12:13;;;;;;;3.57;2.53;;;;;;;10.69;80.56;96384.63;5035306;28;20174;-77
2023/02/18 03:14:42;;;;;;;3.20;2.90;;;;;;;10.62;81.13;96386.09;5028308;28;20257;-76
2023/02/18 03:17:24;;;;;;;4.07;3.10;;;;;;;10.45;82.24;96377.91;5016691;28;20685;-78
2023/02/18 03:20:09;;;;;;;3.73;3.40;;;;;;;10.44;81.95;96373.69;5018727;28;20562;-78
2023/02/18 03:22:41;;;;;;;3.63;3.33;;;;;;;10.52;81.68;96365.25;5030983;28;20289;-77
2023/02/18 03:25:07;;;;;;;4.77;3.50;;;;;;;10.53;81.94;96366.09;5030430;28;20221;-77
2023/02/18 03:27:52;;;;;;;3.80;3.50;;;;;;;10.42;82.22;96360.00;5018611;28;20313;-80
2023/02/18 03:30:22;;;;;;;3.37;3.07;;;;;;;10.46;81.85;96351.00;5018983;28;20182;-80
2023/02/18 03:32:51;;;;;;;3.60;2.80;;;;;;;10.53;81.79;96351.31;5033227;28;20237;-78
2023/02/18 03:35:17;;;;;;;3.77;3.37;;;;;;;10.42;81.20;96356.56;5013061;28;20654;-80
2023/02/18 03:37:47;;;;;;;3.57;3.27;;;;;;;10.55;81.24;96358.97;5033452;28;20233;-78
2023/02/18 03:40:12;;;;;;;4.77;3.47;;;;;;;10.48;80.87;96359.47;5026793;28;20183;-78
2023/02/18 03:42:38;;;;;;;3.30;3.00;;;;;;;10.42;81.11;96359.16;5023141;28;20247;-77
2023/02/18 03:45:04;;;;;;;3.07;2.77;;;;;;;10.54;80.11;96357.34;5016333;28;20574;-78
2023/02/18 03:47:29;;;;;;;3.97;3.27;;;;;;;10.68;79.18;96359.59;5032121;28;20187;-78
2023/02/18 03:49:54;;;;;;;3.73;3.43;;;;;;;10.68;78.63;96375.19;5008120;28;20268;-78
2023/02/18 03:52:20;;;;;;;3.40;3.10;;;;;;;10.50;78.85;96365.38;5028835;28;20191;-77
2023/02/18 03:54:45;;;;;;;4.17;3.57;;;;;;;10.57;78.89;96357.06;5031600;28;20305;-77
2023/02/18 03:57:10;;;;;;;3.20;2.90;;;;;;;10.71;77.93;96367.16;5028348;28;20253;-80
2023/02/18 03:59:35;;;;;;;3.80;3.13;;;;;;;10.72;77.82;96353.22;5020497;28;20257;-77
2023/02/18 04:02:01;;;;;;;3.80;3.30;;;;;;;10.71;77.20;96360.19;5016251;28;20191;-78
2023/02/18 04:04:27;;;;;;;3.00;2.80;;;;;;;10.69;76.96;96343.91;5000530;28;20211;-78
2023/02/18 04:06:52;;;;;;;4.10;3.70;;;;;;;10.58;76.50;96349.16;5022081;28;20207;-78
2023/02/18 04:09:18;;;;;;;3.20;2.90;;;;;;;10.71;75.63;96346.38;5016165;28;20917;-77
2023/02/18 04:11:43;;;;;;;3.87;3.57;;;;;;;10.70;75.34;96339.53;5034654;28;20175;-78
2023/02/18 04:14:09;;;;;;;3.50;3.20;;;;;;;10.57;75.53;96355.28;5043179;28;20229;-78
2023/02/18 04:16:35;;;;;;;4.30;3.50;;;;;;;10.65;75.42;96354.66;5032594;28;20198;-79
2023/02/18 04:19:00;;;;;;;3.53;3.23;;;;;;;10.66;75.07;96340.72;5010861;28;20199;-77
2023/02/18 04:21:25;;;;;;;2.63;2.43;;;;;;;10.76;74.67;96341.59;5020811;28;20183;-79
2023/02/18 04:23:51;;;;;;;3.83;3.07;;;;;;;10.62;74.87;96334.97;5012536;28;20222;-79
2023/02/18 04:26:16;;;;;;;4.63;2.90;;;;;;;10.66;75.23;96349.34;5010825;28;20195;-78
2023/02/18 04:28:41;;;;;;;3.27;2.87;;;;;;;10.65;75.31;96339.06;5022288;28;20740;-79
2023/02/18 04:31:07;;;;;;;3.47;3.00;;;;;;;10.73;75.02;96339.25;5022300;28;20195;-79
2023/02/18 04:33:32;;;;;;;2.97;2.47;;;;;;;10.71;75.00;96365.38;5019032;28;20214;-79
2023/02/18 04:35:57;;;;;;;3.00;2.80;;;;;;;10.71;75.27;96365.38;5031329;28;20221;-79
2023/02/18 04:38:22;;;;;;;3.10;2.80;;;;;;;10.71;74.98;96347.19;5018816;28;20225;-78
2023/02/18 04:40:48;;;;;;;3.27;2.90;;;;;;;10.70;74.99;96339.53;5027119;28;20204;-79
2023/02/18 04:43:13;;;;;;;3.27;2.97;;;;;;;10.59;75.16;96339.59;5016838;28;20219;-79
2023/02/18 04:45:38;;;;;;;4.07;3.40;;;;;;;10.46;75.53;96340.63;5016915;28;20273;-79
2023/02/18 04:48:04;;;;;;;2.97;2.70;;;;;;;10.59;75.03;96330.00;5022283;28;20262;-79
2023/02/18 04:50:29;;;;;;;3.40;3.10;;;;;;;10.69;74.66;96335.25;5027095;28;20277;-78
2023/02/18 04:52:54;;;;;;;3.77;3.10;;;;;;;10.67;74.84;96342.38;5016341;28;20221;-79
2023/02/18 04:55:20;;;;;;;3.90;2.90;;;;;;;10.58;74.83;96345.72;5016506;28;20198;-79
2023/02/18 04:57:45;;;;;;;3.33;2.60;;;;;;;10.69;74.63;96338.72;5028535;28;20654;-79
2023/02/18 05:00:15;;;;;;;4.37;3.43;;;;;;;10.59;74.64;96330.00;5006047;28;20195;-79
2023/02/18 05:02:40;;;;;;;3.30;3.00;;;;;;;10.73;74.58;96329.69;5001272;28;20218;-79
2023/02/18 05:05:06;;;;;;;3.17;2.87;;;;;;;10.78;74.28;96337.94;5020477;28;20202;-79
2023/02/18 05:07:31;;;;;;;3.10;2.80;;;;;;;10.90;73.77;96340.44;5018141;28;20320;-79
2023/02/18 05:09:56;;;;;;;2.90;2.70;;;;;;;10.82;74.22;96332.47;5033011;28;20198;-79
2023/02/18 05:12:22;;;;;;;3.00;2.40;;;;;;;10.82;74.74;96338.47;5032359;28;20661;-80
2023/02/18 05:14:47;;;;;;;3.40;2.77;;;;;;;10.78;74.33;96335.34;5015099;28;20214;-79
2023/02/18 05:17:12;;;;;;;3.33;2.90;;;;;;;10.59;74.97;96339.59;5020893;28;20187;-79
2023/02/18 05:19:37;;;;;;;3.37;3.07;;;;;;;10.80;74.16;96330.00;5016209;28;20207;-78
2023/02/18 05:22:03;;;;;;;2.93;2.73;;;;;;;10.79;74.17;96336.16;5022337;28;20190;-78
2023/02/18 05:24:28;;;;;;;3.00;2.80;;;;;;;10.79;74.02;96330.97;5012749;28;20242;-78
2023/02/18 05:26:53;;;;;;;3.00;2.70;;;;;;;10.72;74.00;96325.44;5016052;28;20209;-79
2023/02/18 05:29:19;;;;;;;3.03;2.83;;;;;;;10.81;73.68;96323.84;5016653;28;20198;-79
2023/02/18 05:31:44;;;;;;;4.43;2.93;;;;;;;10.73;73.68;96332.28;5027013;28;20577;-79
2023/02/18 05:34:09;;;;;;;4.27;3.00;;;;;;;10.69;74.48;96323.13;5005490;28;20241;-79
2023/02/18 05:36:34;;;;;;;5.43;3.00;;;;;;;10.73;74.13;96326.28;5014537;28;20563;-79
2023/02/18 05:39:00;;;;;;;4.13;3.60;;;;;;;10.74;74.11;96325.31;5019809;28;20183;-79
2023/02/18 05:41:25;;;;;;;3.23;2.93;;;;;;;10.88;73.91;96326.75;5010106;28;20190;-79
2023/02/18 05:46:34;;;;;;;3.10;2.87;;;;;;;10.70;74.23;96327.38;5022849;28;20202;-79
2023/02/18 05:49:00;;;;;;;3.20;2.90;;;;;;;10.80;74.20;96323.97;5007306;28;20190;-79
2023/02/18 05:51:25;;;;;;;4.73;2.93;;;;;;;10.94;73.35;96323.63;5012734;28;20204;-79
2023/02/18 05:53:50;;;;;;;3.13;2.77;;;;;;;10.85;74.24;96329.59;5017865;28;20701;-78
2023/02/18 05:56:16;;;;;;;3.03;2.73;;;;;;;10.62;73.60;96314.19;5012764;28;20197;-79
2023/02/18 05:58:41;;;;;;;3.13;2.80;;;;;;;10.78;73.53;96311.13;5023966;28;20190;-78
2023/02/18 06:01:06;;;;;;;4.10;3.20;;;;;;;10.68;73.20;96307.63;5031327;28;20187;-79
2023/02/18 06:03:32;;;;;;;3.50;2.50;;;;;;;10.75;73.00;96314.78;5014688;28;20265;-79
2023/02/18 06:05:57;;;;;;;3.00;2.70;;;;;;;10.91;72.86;96308.28;5022451;28;20187;-79
2023/02/18 06:08:22;;;;;;;5.70;4.17;;;;;;;10.84;73.12;96309.78;5027845;28;20195;-78
2023/02/18 06:10:47;;;;;;;3.30;2.97;;;;;;;10.62;74.37;96308.19;5032858;28;20183;-79
2023/02/18 06:13:13;;;;;;;5.60;5.10;;;;;;;10.76;74.00;96307.81;5028765;28;20210;-78
2023/02/18 06:15:38;;;;;;;2.40;2.20;;;;;;;10.75;74.20;96301.78;5005673;28;20191;-79
2023/02/18 06:18:05;;;;;;;2.90;2.33;;;;;;;10.84;74.03;96308.00;5021838;28;20283;-79
2023/02/18 06:20:30;;;;;;;3.40;3.10;;;;;;;10.87;73.92;96312.13;5015421;28;20198;-79
2023/02/18 06:22:55;;;;;;;3.13;2.73;;;;;;;10.99;73.71;96322.28;5006809;28;20221;-79
2023/02/18 06:25:21;;;;;;;2.77;2.30;;;;;;;10.89;73.95;96311.03;5031086;28;20206;-79
2023/02/18 06:27:46;;;;;;;5.70;3.00;;;;;;;10.66;74.75;96312.16;5018928;28;20212;-80
2023/02/18 06:30:12;;;;;;;4.10;2.90;;;;;;;10.89;73.78;96316.22;5015482;28;20189;-80
2023/02/18 06:32:37;;;;;;;2.60;2.40;;;;;;;10.94;73.61;96314.03;5009786;28;20187;-79
2023/02/18 06:35:03;;;;;;;3.47;3.10;;;;;;;10.98;73.39;96310.25;5020502;28;20179;-80
2023/02/18 06:37:28;;;;;;;3.20;2.73;;;;;;;10.91;73.62;96319.50;5018362;28;20272;-79
2023/02/18 06:39:54;;;;;;;3.17;2.80;;;;;;;10.99;73.36;96309.28;5008252;28;20195;-80
2023/02/18 06:42:19;;;;;;;3.77;3.47;;;;;;;10.87;73.86;96312.94;5029577;28;20197;-78
2023/02/18 06:44:44;;;;;;;4.87;3.73;;;;;;;10.65;74.09;96313.94;5034087;28;20238;-79
2023/02/18 06:47:09;;;;;;;4.27;3.87;;;;;;;10.93;73.57;96306.38;5030304;28;20193;-79
2023/02/18 06:49:35;;;;;;;3.00;2.80;;;;;;;10.91;73.23;96309.13;5025567;28;20686;-79
2023/02/18 06:52:00;;;;;;;3.33;2.93;;;;;;;10.84;73.67;96308.00;5019401;28;20194;-79
2023/02/18 06:54:26;;;;;;;3.40;2.90;;;;;;;10.84;73.76;96302.78;5017266;28;20211;-80
2023/02/18 06:56:51;;;;;;;4.53;2.90;;;;;;;10.88;73.75;96306.78;5025414;28;20190;-80
2023/02/18 06:59:16;;;;;;;4.60;4.07;;;;;;;10.86;73.46;96302.66;5017237;28;20506;-80
2023/02/18 07:01:41;;;;;;;7.97;7.17;;;;;;;10.80;73.99;96317.00;5001196;28;20186;-79
2023/02/18 07:04:07;;;;;;;5.07;4.67;;;;;;;10.85;73.82;96314.81;5026890;28;20199;-79
2023/02/18 07:06:33;;;;;;;4.50;4.10;;;;;;;10.86;73.70;96300.88;5006755;28;20285;-79
2023/02/18 07:08:58;;;;;;;5.13;4.60;;;;;;;10.95;73.54;96302.69;5002003;28;20191;-80
2023/02/18 07:11:23;;;;;;;4.17;3.60;;;;;;;10.78;73.25;96305.94;5016710;28;20191;-79
2023/02/18 07:13:49;;;;;;;4.63;3.47;;;;;;;10.73;73.75;96289.91;5021054;28;20198;-80
2023/02/18 07:16:14;;;;;;;4.73;3.97;;;;;;;10.92;73.08;96283.94;5026368;28;20202;-79
2023/02/18 07:18:39;;;;;;;4.60;4.10;;;;;;;10.82;73.57;96277.91;5031818;28;20182;-81
2023/02/18 07:21:05;;;;;;;6.80;4.90;;;;;;;10.87;73.50;96291.34;5029414;28;20194;-79
2023/02/18 07:23:30;;;;;;;7.37;5.90;;;;;;;11.00;73.15;96290.13;5024085;28;20206;-80
2023/02/18 07:26:03;;;;;;;8.73;4.80;;;;;;;10.90;73.37;96286.69;5001115;28;20187;-80
2023/02/18 07:28:28;;;;;;;7.27;5.97;;;;;;;11.10;72.55;96281.53;5015536;28;20218;-80
2023/02/18 07:30:54;;;;;;;8.17;5.73;;;;;;;11.00;73.08;96276.31;5004435;28;21002;-79
2023/02/18 07:33:19;;;;;;;6.13;4.87;;;;;;;11.07;72.38;96283.47;5025875;28;20214;-80
2023/02/18 07:35:44;;;;;;;5.40;4.20;;;;;;;10.77;73.43;96273.09;5013748;28;20232;-79
2023/02/18 07:38:10;;;;;;;5.73;5.23;;;;;;;11.23;72.03;96276.94;5011894;28;20198;-79
2023/02/18 07:40:35;;;;;;;5.93;4.40;;;;;;;11.04;72.10;96272.50;5014293;28;20195;-79
2023/02/18 07:43:00;;;;;;;3.83;3.17;;;;;;;11.12;72.39;96277.03;5018311;28;20294;-79
2023/02/18 07:45:25;;;;;;;3.37;3.07;;;;;;;11.10;72.11;96282.38;5019988;28;20344;-79
2023/02/18 07:47:51;;;;;;;3.50;3.20;;;;;;;11.22;71.67;96270.06;5029949;28;20182;-79
2023/02/18 07:50:16;;;;;;;4.07;3.00;;;;;;;11.10;71.95;96279.75;5024035;28;20194;-78
2023/02/18 07:52:41;;;;;;;3.60;3.30;;;;;;;11.18;71.75;96292.09;5033759;28;20194;-80
2023/02/18 07:55:07;;;;;;;3.40;2.70;;;;;;;11.36;71.24;96290.50;5028292;28;20190;-78
2023/02/18 07:57:55;;;;;;;3.37;2.93;;;;;;;11.35;71.54;96291.47;5010795;28;20198;-80
2023/02/18 08:00:18;;;;;;;4.17;2.90;;;;;;;10.79;72.48;96279.00;5028576;28;20225;-79
2023/02/18 08:02:43;;;;;;;3.30;3.00;;;;;;;11.13;71.83;96281.28;5032026;28;20337;-79
2023/02/18 08:05:09;;;;;;;3.60;3.00;;;;;;;11.01;72.01;96286.59;5025072;28;20202;-80
2023/02/18 08:07:34;;;;;;;3.10;2.80;;;;;;;11.23;70.94;96282.13;5014422;28;20718;-80
2023/02/18 08:10:00;;;;;;;3.23;2.70;;;;;;;10.99;71.76;96272.91;4999530;28;20263;-78
2023/02/18 08:12:25;;;;;;;3.10;2.80;;;;;;;11.14;71.06;96267.34;5020109;28;20655;-78
2023/02/18 08:14:50;;;;;;;2.67;2.43;;;;;;;11.23;71.22;96271.75;5015159;28;20307;-79
2023/02/18 08:17:16;;;;;;;3.33;3.03;;;;;;;11.45;70.30;96284.50;5016446;28;20256;-78
2023/02/18 08:19:42;;;;;;;2.73;2.50;;;;;;;11.28;70.96;96280.75;5023388;28;20197;-79
2023/02/18 08:22:08;;;;;;;3.53;3.00;;;;;;;11.15;71.60;96280.19;5025418;28;20190;-79
2023/02/18 08:24:34;;;;;;;3.13;2.67;;;;;;;11.33;71.16;96283.78;5014887;28;20302;-79
2023/02/18 08:26:59;;;;;;;3.30;3.00;;;;;;;11.51;70.75;96275.34;5006829;28;20187;-78
2023/02/18 08:29:24;;;;;;;2.73;2.53;;;;;;;11.40;70.99;96272.88;5014035;28;20283;-79
2023/02/18 08:31:51;;;;;;;2.87;2.50;;;;;;;11.46;70.90;96261.91;5003765;28;20187;-79
2023/02/18 08:34:16;;;;;;;3.00;2.20;;;;;;;11.24;71.87;96266.41;5027594;28;20199;-78
2023/02/18 08:36:41;;;;;;;3.27;2.97;;;;;;;11.26;72.52;96253.25;5016781;28;20252;-79
2023/02/18 08:39:07;;;;;;;2.83;2.53;;;;;;;11.33;72.13;96251.78;5012833;28;20666;-79
2023/02/18 08:41:32;;;;;;;3.37;2.50;;;;;;;11.31;72.36;96264.09;5023842;28;20191;-79
2023/02/18 08:43:57;;;;;;;2.80;2.30;;;;;;;11.39;72.51;96269.41;5013349;28;20217;-79
2023/02/18 08:46:23;;;;;;;2.37;2.17;;;;;;;11.54;71.61;96270.66;5012759;28;20598;-79
2023/02/18 08:48:48;;;;;;;2.07;1.87;;;;;;;11.30;72.88;96278.03;5023657;28;20194;-79
2023/02/18 08:51:21;;;;;;;2.43;2.10;;;;;;;11.05;73.57;96261.16;5010762;28;20647;-78
2023/02/18 08:53:46;;;;;;;16.20;3.03;;;;;;;11.59;71.63;96260.69;5031644;28;20229;-79
2023/02/18 08:56:13;;;;;;;2.30;2.10;;;;;;;11.69;71.03;96254.66;5030557;28;20182;-78
2023/02/18 08:58:39;;;;;;;2.20;2.00;;;;;;;11.56;71.44;96252.31;5009767;28;20187;-79
2023/02/18 09:01:07;;;;;;;1.90;1.50;;;;;;;11.54;71.57;96255.06;5020550;28;20187;-79
2023/02/18 09:03:33;;;;;;;3.43;2.00;;;;;;;12.02;70.26;96254.28;5036069;28;20265;-79
2023/02/18 09:05:59;;;;;;;5.23;3.60;;;;;;;11.94;70.06;96251.53;5021077;28;20256;-79
2023/02/18 09:08:24;;;;;;;2.47;2.27;;;;;;;11.83;70.11;96249.88;5021314;28;20182;-78
2023/02/18 09:10:53;;;;;;;2.67;1.80;;;;;;;12.06;69.13;96244.41;5017398;28;20194;-78
2023/02/18 09:13:19;;;;;;;2.57;2.37;;;;;;;12.04;69.08;96228.91;5026121;28;20211;-78
2023/02/18 09:15:44;;;;;;;4.13;2.40;;;;;;;11.98;68.21;96226.03;5012863;28;20198;-77
2023/02/18 09:18:09;;;;;;;2.33;2.13;;;;;;;11.96;68.82;96244.41;4997234;28;20598;-79
2023/02/18 09:20:35;;;;;;;2.50;1.90;;;;;;;11.88;68.75;96231.28;4999171;28;20213;-78
2023/02/18 09:23:02;;;;;;;3.60;2.20;;;;;;;11.97;68.65;96233.03;5022541;28;20674;-78
2023/02/18 09:25:27;;;;;;;2.27;1.80;;;;;;;11.82;68.87;96234.41;5027432;28;20213;-78
2023/02/18 09:27:53;;;;;;;2.13;1.93;;;;;;;11.93;68.20;96223.03;5029905;28;20193;-78
2023/02/18 09:30:18;;;;;;;2.07;1.70;;;;;;;12.22;67.70;96238.63;5009990;28;20633;-79
2023/02/18 09:32:43;;;;;;;1.90;1.70;;;;;;;12.05;67.90;96227.94;5004291;28;20201;-78
2023/02/18 09:35:09;;;;;;;3.17;1.97;;;;;;;11.96;67.89;96231.41;5013856;28;20230;-78
2023/02/18 09:37:34;;;;;;;5.03;3.37;;;;;;;12.06;67.16;96242.59;5000624;28;20233;-78
2023/02/18 09:39:59;;;;;;;2.23;2.03;;;;;;;12.00;67.87;96240.56;5022232;28;20187;-79
2023/02/18 09:42:30;;;;;;;4.50;2.17;;;;;;;11.81;67.65;96235.38;5005120;28;20596;-78
2023/02/18 09:44:59;;;;;;;2.53;1.77;;;;;;;11.86;68.17;96235.78;5015652;28;20423;-78
2023/02/18 09:47:27;;;;;;;1.63;1.53;;;;;;;12.02;67.47;96237.84;5015246;28;20535;-79
2023/02/18 09:49:56;;;;;;;1.87;1.43;;;;;;;12.29;67.04;96234.50;5026845;28;20186;-79
2023/02/18 09:52:25;;;;;;;1.83;1.50;;;;;;;12.30;67.09;96247.38;5029974;28;20186;-78
2023/02/18 09:54:53;;;;;;;2.63;1.93;;;;;;;12.22;67.24;96243.81;5027319;28;20199;-79
2023/02/18 09:57:25;;;;;;;5.00;3.50;;;;;;;12.50;66.45;96242.91;5008622;28;20235;-79
2023/02/18 10:00:06;;;;;;;5.23;3.87;;;;;;;12.34;66.37;96225.28;5021354;28;20202;-78
2023/02/18 10:02:32;;;;;;;9.73;8.00;;;;;;;12.23;66.84;96230.66;5019992;28;20189;-78
2023/02/18 10:04:58;;;;;;;5.10;4.60;;;;;;;12.33;66.52;96226.25;5026822;28;20197;-77
2023/02/18 10:07:27;;;;;;;2.60;2.40;;;;;;;12.23;66.96;96224.63;5023132;28;20183;-77
2023/02/18 10:09:53;;;;;;;7.03;4.73;;;;;;;12.11;67.53;96222.19;5002770;28;20241;-77
2023/02/18 10:12:21;;;;;;;2.20;2.00;;;;;;;11.55;68.99;96225.50;5021714;28;20183;-78
2023/02/18 10:14:49;;;;;;;4.23;2.00;;;;;;;11.91;67.93;96216.19;5018259;28;20199;-77
2023/02/18 10:17:15;;;;;;;7.10;6.53;;;;;;;12.19;67.31;96227.53;5034125;28;20721;-78
2023/02/18 10:19:41;;;;;;;5.33;4.83;;;;;;;12.21;66.96;96221.34;5033477;28;20190;-78
2023/02/18 10:22:07;;;;;;;1.67;1.53;;;;;;;12.16;67.52;96232.19;5011965;28;20199;-77
2023/02/18 10:24:42;;;;;;;2.97;2.77;;;;;;;12.30;67.65;96226.53;5022863;28;20627;-79
2023/02/18 10:27:08;;;;;;;1.70;1.60;;;;;;;12.55;66.63;96235.50;5019140;28;20237;-79
2023/02/18 10:29:34;;;;;;;3.50;1.40;;;;;;;12.65;66.28;96244.09;5023903;28;20184;-79
2023/02/18 10:32:23;;;;;;;2.40;1.73;;;;;;;12.58;65.38;96244.81;5008726;28;20278;-78
2023/02/18 10:35:10;;;;;;;3.00;1.53;;;;;;;12.44;66.77;96246.91;5033066;28;20234;-79
2023/02/18 10:38:20;;;;;;;1.80;1.60;;;;;;;12.39;66.37;96256.13;5023116;28;20223;-78
2023/02/18 10:40:58;;;;;;;2.40;2.07;;;;;;;12.12;67.01;96257.69;5045787;28;20194;-79
2023/02/18 10:43:42;;;;;;;1.60;1.50;;;;;;;12.31;66.82;96254.22;5022260;28;20504;-79
2023/02/18 10:46:26;;;;;;;1.87;1.70;;;;;;;12.08;67.22;96240.69;5023922;28;20417;-79
2023/02/18 10:48:54;;;;;;;1.80;1.50;;;;;;;12.18;66.90;96248.47;5034544;28;20273;-79
2023/02/18 10:51:21;;;;;;;2.67;1.53;;;;;;;12.33;66.75;96251.47;5022521;28;20187;-78
2023/02/18 10:53:48;;;;;;;1.97;1.77;;;;;;;12.37;66.37;96243.25;5019724;28;20242;-78
2023/02/18 10:56:45;;;;;;;1.70;1.50;;;;;;;12.40;65.69;96231.72;5025406;28;20191;-78
2023/02/18 10:59:26;;;;;;;2.23;1.93;;;;;;;12.38;65.98;96213.63;5015723;28;20233;-79
2023/02/18 11:02:01;;;;;;;2.10;1.90;;;;;;;12.15;66.81;96218.34;5019255;28;20539;-79
2023/02/18 11:04:40;;;;;;;2.33;2.10;;;;;;;12.40;65.45;96206.47;5011225;28;20225;-79
2023/02/18 11:07:12;;;;;;;3.33;2.10;;;;;;;12.28;66.05;96225.00;5033193;28;20179;-79
2023/02/18 11:09:41;;;;;;;3.43;2.00;;;;;;;12.11;66.43;96217.00;5001090;28;20190;-79
2023/02/18 11:12:23;;;;;;;2.67;2.23;;;;;;;12.41;65.77;96210.72;5018846;28;20233;-79
2023/02/18 11:15:06;;;;;;;3.00;2.23;;;;;;;12.59;65.56;96216.00;5016307;28;20222;-79
2023/02/18 11:17:33;;;;;;;2.27;2.00;;;;;;;12.22;65.29;96205.59;5016877;28;20210;-79
2023/02/18 11:20:01;;;;;;;3.57;2.50;;;;;;;12.28;65.01;96194.59;5017013;28;20198;-78
2023/02/18 11:22:38;;;;;;;2.83;2.00;;;;;;;12.39;63.95;96207.44;5027455;28;20209;-79
2023/02/18 11:25:18;;;;;;;2.30;2.10;;;;;;;12.43;65.12;96210.56;5026451;28;20281;-79
2023/02/18 11:27:45;;;;;;;4.80;3.17;;;;;;;12.63;64.58;96209.56;5029010;28;20183;-79
2023/02/18 11:30:38;;;;;;;2.57;2.37;;;;;;;12.66;63.98;96195.41;5023976;28;20191;-79
2023/02/18 11:33:20;;;;;;;4.80;2.63;;;;;;;12.85;63.91;96199.69;5029404;28;20226;-79
2023/02/18 11:35:54;;;;;;;2.53;2.30;;;;;;;12.64;64.48;96173.91;5022801;28;20195;-79
2023/02/18 11:38:41;;;;;;;3.67;3.37;;;;;;;12.60;64.52;96181.16;5029329;28;20567;-79
2023/02/18 11:41:07;;;;;;;3.27;2.97;;;;;;;12.61;64.97;96188.00;5014550;28;20258;-78
2023/02/18 11:43:33;;;;;;;7.63;4.27;;;;;;;12.71;64.88;96194.00;5017148;28;20199;-78